Time;durP1;ratioP1;P1;durP2;ratioP2;P2;SDS_P1;SDS_P2;PMS_P1;PMS_P2;Temp;Humidity;BMP_temperature;BMP_pressure;BME280_temperature;BME280_humidity;BME280_pressure;Samples;Min_cycle;Max_cycle;Signal;HPM_P1;HPM_P2
2021/06/30 00:00:29;;;;;;;1.90;1.53;;;;;;;18.33;88.10;96041.59;5076236;28;20411;-60
2021/06/30 00:02:54;;;;;;;1.90;1.27;;;;;;;18.22;88.19;96038.22;5075687;28;20175;-63
2021/06/30 00:05:20;;;;;;;2.93;1.30;;;;;;;18.13;88.32;96034.59;5076231;28;20231;-60
2021/06/30 00:07:45;;;;;;;2.50;1.17;;;;;;;18.05;89.01;96045.03;5082731;28;20281;-63
2021/06/30 00:10:11;;;;;;;2.73;1.20;;;;;;;18.06;89.61;96039.44;5089814;28;20197;-64
2021/06/30 00:12:37;;;;;;;3.03;1.40;;;;;;;18.25;88.90;96039.53;5095589;28;20166;-60
2021/06/30 00:15:17;;;;;;;1.10;1.10;;;;;;;18.15;89.75;96039.63;5096222;28;20186;-63
2021/06/30 00:17:44;;;;;;;1.30;1.30;;;;;;;18.07;89.72;96043.69;5095947;28;20415;-61
2021/06/30 00:20:10;;;;;;;1.50;1.40;;;;;;;18.06;89.96;96054.63;5095932;28;20871;-60
2021/06/30 00:22:35;;;;;;;1.60;1.50;;;;;;;17.85;91.50;96053.97;5095932;28;20408;-60
2021/06/30 00:25:00;;;;;;;1.80;1.57;;;;;;;17.97;91.17;96043.75;5095207;28;20531;-60
2021/06/30 00:27:26;;;;;;;1.80;1.50;;;;;;;17.83;92.12;96034.84;5095893;28;20174;-60
2021/06/30 00:29:52;;;;;;;3.10;1.40;;;;;;;17.65;92.63;96032.06;5095636;28;20559;-60
2021/06/30 00:32:17;;;;;;;3.10;1.60;;;;;;;17.84;92.42;96031.16;5095343;28;20182;-61
2021/06/30 00:34:42;;;;;;;1.90;1.80;;;;;;;17.80;91.92;96035.44;5095600;28;20205;-63
2021/06/30 00:37:08;;;;;;;1.80;1.70;;;;;;;17.40;94.20;96038.34;5092151;28;20171;-63
2021/06/30 00:39:33;;;;;;;2.00;1.57;;;;;;;17.50;93.43;96048.16;5075432;28;20548;-63
2021/06/30 00:41:59;;;;;;;1.47;1.40;;;;;;;17.62;93.50;96043.28;5075070;28;20240;-64
2021/06/30 00:44:24;;;;;;;2.33;1.77;;;;;;;17.46;94.49;96035.38;5075205;28;20186;-60
2021/06/30 00:46:50;;;;;;;3.40;1.63;;;;;;;17.45;93.71;96043.63;5075182;28;20630;-62
2021/06/30 00:49:15;;;;;;;2.00;1.30;;;;;;;17.53;93.34;96048.41;5075134;28;20510;-60
2021/06/30 00:51:41;;;;;;;2.27;1.60;;;;;;;17.32;94.42;96042.38;5076364;28;20257;-60
2021/06/30 00:54:06;;;;;;;1.77;1.67;;;;;;;17.26;94.77;96040.03;5075858;28;20220;-64
2021/06/30 00:56:32;;;;;;;3.20;1.33;;;;;;;17.45;93.38;96038.31;5074130;28;20175;-63
2021/06/30 00:58:59;;;;;;;1.23;1.23;;;;;;;17.37;93.70;96042.34;5075167;28;20170;-60
2021/06/30 01:01:26;;;;;;;1.53;1.40;;;;;;;17.25;93.57;96046.41;5074609;28;20159;-65
2021/06/30 01:03:52;;;;;;;1.53;1.00;;;;;;;17.13;94.89;96045.97;5074650;28;20437;-59
2021/06/30 01:06:18;;;;;;;2.50;1.30;;;;;;;17.10;94.42;96055.25;5090032;28;20408;-63
2021/06/30 01:08:44;;;;;;;1.20;1.10;;;;;;;16.76;95.58;96048.28;5075706;28;20417;-64
2021/06/30 01:11:10;;;;;;;1.20;1.20;;;;;;;16.66;96.44;96058.91;5074731;28;20198;-64
2021/06/30 01:13:36;;;;;;;1.43;1.03;;;;;;;16.75;95.87;96062.59;5074283;28;20448;-60
2021/06/30 01:16:02;;;;;;;1.20;1.10;;;;;;;16.65;96.09;96060.00;5074564;28;20895;-60
2021/06/30 01:18:30;;;;;;;1.97;1.10;;;;;;;16.60;96.73;96070.59;5074799;28;20171;-60
2021/06/30 01:20:57;;;;;;;1.07;1.07;;;;;;;16.71;96.11;96077.47;5074777;28;20179;-64
2021/06/30 01:23:23;;;;;;;0.90;0.90;;;;;;;16.56;96.91;96074.88;5074075;28;20506;-64
2021/06/30 01:25:49;;;;;;;1.13;1.03;;;;;;;16.40;98.14;96082.84;5074643;28;20838;-64
2021/06/30 01:28:16;;;;;;;3.03;1.20;;;;;;;16.25;99.38;96074.13;5074560;28;20179;-64
2021/06/30 01:30:45;;;;;;;1.40;1.10;;;;;;;16.36;99.72;96080.97;5074174;28;20448;-63
2021/06/30 01:33:11;;;;;;;1.03;1.00;;;;;;;16.31;100.00;96076.50;5073873;28;20876;-60
2021/06/30 01:35:37;;;;;;;3.83;1.20;;;;;;;16.07;100.00;96086.06;5074236;28;20440;-64
2021/06/30 01:38:03;;;;;;;2.20;0.83;;;;;;;16.03;100.00;96082.34;5080836;28;20954;-64
2021/06/30 01:40:29;;;;;;;4.00;1.03;;;;;;;15.87;100.00;96074.69;5087845;28;20245;-60
2021/06/30 01:42:56;;;;;;;2.90;1.20;;;;;;;15.76;100.00;96081.81;5093952;28;20408;-64
2021/06/30 01:45:22;;;;;;;1.43;0.80;;;;;;;15.95;100.00;96072.28;5094297;28;20499;-61
2021/06/30 01:47:49;;;;;;;1.40;1.10;;;;;;;15.89;100.00;96069.94;5094112;28;20412;-60
2021/06/30 01:50:15;;;;;;;1.27;1.17;;;;;;;15.97;100.00;96070.19;5094280;28;20470;-64
2021/06/30 01:52:42;;;;;;;1.47;1.37;;;;;;;15.72;100.00;96062.22;5093894;28;20404;-60
2021/06/30 01:55:09;;;;;;;1.43;1.00;;;;;;;15.95;100.00;96053.75;5093383;28;20999;-60
2021/06/30 01:57:55;;;;;;;1.70;1.20;;;;;;;15.44;100.00;96065.38;5094256;28;20408;-61
2021/06/30 02:00:21;;;;;;;3.90;1.07;;;;;;;15.72;100.00;96059.59;5088667;28;20429;-59
2021/06/30 02:02:48;;;;;;;1.30;0.77;;;;;;;15.93;100.00;96047.91;5073526;28;20469;-60
2021/06/30 02:05:15;;;;;;;1.43;0.90;;;;;;;15.86;100.00;96039.44;5080714;28;20427;-60
2021/06/30 02:07:54;;;;;;;1.07;0.97;;;;;;;15.57;100.00;96041.03;5093661;28;20491;-60
2021/06/30 02:10:22;;;;;;;3.00;0.83;;;;;;;15.60;100.00;96048.44;5094001;28;20542;-63
2021/06/30 02:12:48;;;;;;;1.00;1.00;;;;;;;15.70;100.00;96051.09;5093504;28;20489;-64
2021/06/30 02:15:25;;;;;;;0.83;0.80;;;;;;;15.62;100.00;96048.19;5087787;28;20835;-60
2021/06/30 02:17:50;;;;;;;3.10;1.10;;;;;;;15.66;100.00;96051.88;5073851;28;20181;-64
2021/06/30 02:20:18;;;;;;;1.23;0.77;;;;;;;15.39;100.00;96047.63;5073621;28;20476;-60
2021/06/30 02:22:45;;;;;;;0.80;0.80;;;;;;;15.57;100.00;96040.22;5073086;28;20186;-64
2021/06/30 02:25:14;;;;;;;0.60;0.60;;;;;;;15.29;100.00;96047.59;5073438;28;20421;-64
2021/06/30 02:27:40;;;;;;;0.80;0.80;;;;;;;15.22;100.00;96059.47;5073609;28;20763;-64
2021/06/30 02:30:12;;;;;;;0.60;0.60;;;;;;;15.15;100.00;96054.44;5080248;28;20455;-64
2021/06/30 02:32:38;;;;;;;0.70;0.70;;;;;;;14.88;100.00;96055.69;5073586;28;20949;-59
2021/06/30 02:35:07;;;;;;;0.60;0.60;;;;;;;14.99;100.00;96055.47;5073275;28;20462;-59
2021/06/30 02:37:32;;;;;;;0.60;0.60;;;;;;;15.08;100.00;96053.09;5074006;28;20175;-60
2021/06/30 02:39:59;;;;;;;1.53;0.70;;;;;;;15.24;100.00;96062.66;5073309;28;20416;-59
2021/06/30 02:42:24;;;;;;;0.70;0.40;;;;;;;15.11;100.00;96068.47;5072942;28;20174;-60
2021/06/30 02:44:50;;;;;;;0.80;0.80;;;;;;;15.09;100.00;96055.47;5073194;28;20840;-60
2021/06/30 02:47:15;;;;;;;0.50;0.50;;;;;;;14.76;100.00;96063.88;5089104;28;20173;-64
2021/06/30 02:49:41;;;;;;;0.93;0.60;;;;;;;14.58;100.00;96058.22;5073147;28;20266;-61
2021/06/30 02:52:06;;;;;;;0.67;0.67;;;;;;;14.91;100.00;96063.13;5072862;28;20171;-60
2021/06/30 02:54:32;;;;;;;2.40;0.53;;;;;;;14.73;100.00;96063.59;5055178;28;20551;-64
2021/06/30 02:56:57;;;;;;;0.53;0.50;;;;;;;14.89;100.00;96067.88;5073155;28;20231;-64
2021/06/30 02:59:22;;;;;;;0.97;0.40;;;;;;;14.63;100.00;96082.84;5073645;28;20652;-60
2021/06/30 03:01:48;;;;;;;0.60;0.60;;;;;;;14.76;100.00;96081.56;5089520;28;20301;-60
2021/06/30 03:04:13;;;;;;;0.50;0.50;;;;;;;14.68;100.00;96079.41;5054906;28;20190;-60
2021/06/30 03:06:38;;;;;;;0.73;0.70;;;;;;;14.60;100.00;96093.13;5091513;28;20268;-61
2021/06/30 03:09:04;;;;;;;0.57;0.57;;;;;;;14.55;100.00;96077.25;5091462;28;20182;-64
2021/06/30 03:11:29;;;;;;;0.70;0.70;;;;;;;14.63;100.00;96071.47;5091945;28;20201;-64
2021/06/30 03:13:55;;;;;;;0.67;0.63;;;;;;;14.44;100.00;96076.38;5093002;28;20752;-60
2021/06/30 03:16:20;;;;;;;0.83;0.60;;;;;;;14.21;100.00;96077.56;5075147;28;20652;-63
2021/06/30 03:18:45;;;;;;;0.67;0.67;;;;;;;14.32;100.00;96079.25;5094004;28;20176;-60
2021/06/30 03:21:11;;;;;;;0.57;0.50;;;;;;;14.11;100.00;96066.91;5078192;28;20177;-63
2021/06/30 03:23:37;;;;;;;0.60;0.60;;;;;;;14.15;100.00;96068.00;5096695;28;20273;-63
2021/06/30 03:26:02;;;;;;;1.03;0.70;;;;;;;14.19;100.00;96073.56;5097318;28;20184;-63
2021/06/30 03:28:28;;;;;;;0.93;0.60;;;;;;;14.13;100.00;96072.75;5097251;28;20173;-63
2021/06/30 03:30:53;;;;;;;0.60;0.60;;;;;;;14.03;100.00;96070.03;5096951;28;20201;-60
2021/06/30 03:33:19;;;;;;;1.03;0.50;;;;;;;14.00;100.00;96075.84;5096481;28;20186;-59
2021/06/30 03:35:44;;;;;;;1.90;0.73;;;;;;;14.01;100.00;96069.50;5081270;28;20200;-64
2021/06/30 03:38:09;;;;;;;0.70;0.60;;;;;;;14.26;100.00;96066.22;5077866;28;20186;-61
2021/06/30 03:40:35;;;;;;;0.70;0.70;;;;;;;14.25;100.00;96065.44;5076571;28;20629;-60
2021/06/30 03:43:00;;;;;;;0.80;0.70;;;;;;;13.95;100.00;96069.72;5076130;28;20167;-63
2021/06/30 03:45:25;;;;;;;0.70;0.70;;;;;;;13.94;100.00;96063.66;5076418;28;20171;-64
2021/06/30 03:47:51;;;;;;;0.70;0.70;;;;;;;14.19;100.00;96057.72;5076454;28;20640;-61
2021/06/30 03:50:16;;;;;;;0.80;0.80;;;;;;;14.20;100.00;96059.31;5076368;28;20195;-60
2021/06/30 03:52:42;;;;;;;1.00;0.90;;;;;;;14.40;100.00;96060.25;5075794;28;20178;-64
2021/06/30 03:55:08;;;;;;;1.47;0.63;;;;;;;14.32;100.00;96062.59;5092104;28;20691;-64
2021/06/30 03:57:35;;;;;;;0.90;0.63;;;;;;;14.33;100.00;96062.31;5076243;28;20182;-60
2021/06/30 04:00:00;;;;;;;1.23;0.67;;;;;;;14.12;100.00;96065.06;5076153;28;20397;-60
2021/06/30 04:02:26;;;;;;;0.70;0.70;;;;;;;14.19;100.00;96066.44;5075785;28;20417;-60
2021/06/30 04:04:51;;;;;;;1.17;0.63;;;;;;;14.21;100.00;96076.75;5079854;28;20227;-63
2021/06/30 04:07:17;;;;;;;0.60;0.60;;;;;;;14.25;100.00;96078.66;5096232;28;20633;-64
2021/06/30 04:09:42;;;;;;;0.60;0.60;;;;;;;14.22;100.00;96081.00;5084170;28;20182;-64
2021/06/30 04:12:07;;;;;;;0.87;0.77;;;;;;;14.40;100.00;96078.75;5080185;28;20633;-64
2021/06/30 04:14:33;;;;;;;0.50;0.50;;;;;;;14.47;100.00;96083.03;5096187;28;20564;-61
2021/06/30 04:16:58;;;;;;;2.83;0.57;;;;;;;14.50;100.00;96077.22;5096267;28;20206;-60
2021/06/30 04:19:24;;;;;;;0.90;0.90;;;;;;;14.50;100.00;96077.22;5095958;28;20174;-63
2021/06/30 04:21:50;;;;;;;0.87;0.70;;;;;;;14.55;100.00;96074.63;5095816;28;20657;-60
2021/06/30 04:24:15;;;;;;;0.70;0.70;;;;;;;14.44;100.00;96074.53;5096093;28;20221;-59
2021/06/30 04:26:42;;;;;;;0.77;0.77;;;;;;;14.52;100.00;96067.97;5092629;28;20899;-60
2021/06/30 04:29:08;;;;;;;0.80;0.80;;;;;;;14.52;100.00;96072.47;5075560;28;20548;-64
2021/06/30 04:31:33;;;;;;;0.90;0.90;;;;;;;14.07;100.00;96071.13;5074994;28;20460;-65
2021/06/30 04:33:59;;;;;;;3.03;0.80;;;;;;;14.32;100.00;96060.75;5075481;28;20564;-64
2021/06/30 04:36:24;;;;;;;1.20;1.20;;;;;;;14.51;100.00;96066.41;5071003;28;20211;-64
2021/06/30 04:38:50;;;;;;;1.03;0.70;;;;;;;14.56;100.00;96063.78;5095677;28;20193;-64
2021/06/30 04:41:15;;;;;;;0.80;0.80;;;;;;;14.60;100.00;96069.34;5077593;28;20265;-60
2021/06/30 04:43:40;;;;;;;0.80;0.80;;;;;;;14.63;100.00;96066.19;5095116;28;20221;-64
2021/06/30 04:46:07;;;;;;;0.77;0.77;;;;;;;14.69;100.00;96079.19;5095479;28;20625;-65
2021/06/30 04:48:34;;;;;;;3.73;0.80;;;;;;;14.73;100.00;96074.16;5095393;28;20171;-64
2021/06/30 04:50:59;;;;;;;0.80;0.80;;;;;;;14.77;100.00;96072.56;5086050;28;20575;-60
2021/06/30 04:53:25;;;;;;;1.00;0.77;;;;;;;14.68;100.00;96076.75;5095106;28;20447;-61
2021/06/30 04:55:50;;;;;;;0.70;0.70;;;;;;;14.80;100.00;96064.91;5095603;28;20591;-64
2021/06/30 04:58:17;;;;;;;0.60;0.60;;;;;;;14.82;100.00;96069.97;5095523;28;20174;-64
2021/06/30 05:00:43;;;;;;;2.00;0.77;;;;;;;14.84;100.00;96076.56;5095195;28;20219;-60
2021/06/30 05:03:08;;;;;;;1.37;1.00;;;;;;;14.88;100.00;96079.50;5094792;28;20507;-61
2021/06/30 05:05:34;;;;;;;0.60;0.60;;;;;;;15.09;100.00;96079.31;5092743;28;20217;-64
2021/06/30 05:07:59;;;;;;;2.20;1.07;;;;;;;15.24;100.00;96067.97;5075747;28;20187;-61
2021/06/30 05:10:25;;;;;;;0.80;0.80;;;;;;;15.22;100.00;96070.88;5091898;28;20233;-64
2021/06/30 05:12:51;;;;;;;0.90;0.90;;;;;;;15.32;100.00;96065.63;5094636;28;20170;-65
2021/06/30 05:15:16;;;;;;;0.90;0.90;;;;;;;15.18;100.00;96072.44;5095047;28;20773;-64
2021/06/30 05:17:41;;;;;;;0.70;0.70;;;;;;;15.37;100.00;96062.97;5094762;28;20173;-64
2021/06/30 05:20:07;;;;;;;0.70;0.70;;;;;;;15.44;99.12;96060.09;5095308;28;20612;-64
2021/06/30 05:22:33;;;;;;;1.07;0.97;;;;;;;15.43;99.00;96071.75;5094397;28;20170;-64
2021/06/30 05:24:58;;;;;;;1.90;0.90;;;;;;;15.49;99.02;96075.97;5078910;28;20230;-60
2021/06/30 05:27:23;;;;;;;1.03;1.03;;;;;;;15.61;98.64;96079.19;5074348;28;20179;-61
2021/06/30 05:29:49;;;;;;;0.90;0.77;;;;;;;15.53;98.24;96074.38;5074464;28;20178;-61
2021/06/30 05:32:15;;;;;;;1.13;0.80;;;;;;;15.40;98.44;96078.34;5074008;28;20224;-63
2021/06/30 05:34:40;;;;;;;4.00;1.17;;;;;;;15.28;99.72;96076.97;5074112;28;20197;-64
2021/06/30 05:37:06;;;;;;;1.00;1.00;;;;;;;15.49;98.46;96080.50;5093091;28;20181;-64
2021/06/30 05:39:31;;;;;;;0.83;0.83;;;;;;;15.11;100.00;96077.19;5094394;28;20189;-64
2021/06/30 05:41:57;;;;;;;0.97;0.83;;;;;;;15.29;99.47;96073.28;5093435;28;20177;-60
2021/06/30 05:44:22;;;;;;;0.70;0.70;;;;;;;15.01;100.00;96076.38;5094169;28;20231;-64
2021/06/30 05:46:47;;;;;;;0.77;0.77;;;;;;;15.13;100.00;96082.22;5094271;28;20220;-64
2021/06/30 05:49:13;;;;;;;0.77;0.70;;;;;;;15.36;100.00;96081.78;5094209;28;20184;-60
2021/06/30 05:51:41;;;;;;;2.30;1.00;;;;;;;15.19;100.00;96087.28;5076505;28;20206;-60
2021/06/30 05:54:07;;;;;;;0.80;0.80;;;;;;;15.16;100.00;96076.44;5073781;28;20191;-67
2021/06/30 05:56:32;;;;;;;1.10;1.00;;;;;;;15.36;100.00;96079.91;5074035;28;20409;-67
2021/06/30 05:58:58;;;;;;;0.63;0.63;;;;;;;15.52;99.18;96078.13;5081415;28;20256;-67
2021/06/30 06:01:23;;;;;;;6.53;1.07;;;;;;;15.64;98.32;96075.19;5093873;28;20672;-65
2021/06/30 06:03:49;;;;;;;0.73;0.73;;;;;;;15.85;98.24;96090.81;5093623;28;20225;-67
2021/06/30 06:06:14;;;;;;;0.93;0.70;;;;;;;15.94;97.13;96085.81;5092440;28;20170;-67
2021/06/30 06:08:41;;;;;;;2.00;0.90;;;;;;;15.70;96.36;96088.19;5085658;28;20184;-66
2021/06/30 06:11:11;;;;;;;0.83;0.83;;;;;;;15.80;97.26;96087.41;5081879;28;20199;-62
2021/06/30 06:13:41;;;;;;;1.13;0.90;;;;;;;15.56;97.72;96087.13;5073192;28;20504;-66
2021/06/30 06:16:14;;;;;;;0.90;0.90;;;;;;;15.68;98.05;96090.31;5073420;28;20489;-67
2021/06/30 06:18:40;;;;;;;0.70;0.70;;;;;;;15.76;97.17;96091.66;5073603;28;20440;-66
2021/06/30 06:21:05;;;;;;;0.83;0.80;;;;;;;15.86;96.87;96089.78;5073496;28;20951;-62
2021/06/30 06:23:30;;;;;;;0.50;0.50;;;;;;;15.98;94.43;96086.88;5073126;28;20661;-67
2021/06/30 06:25:56;;;;;;;0.93;0.70;;;;;;;16.16;93.95;96088.97;5085208;28;20178;-63
2021/06/30 06:28:22;;;;;;;1.00;0.77;;;;;;;16.14;93.20;96089.22;5093395;28;20170;-63
2021/06/30 06:30:49;;;;;;;0.87;0.70;;;;;;;16.28;92.98;96082.34;5093387;28;20218;-61
2021/06/30 06:33:16;;;;;;;1.23;0.80;;;;;;;16.21;92.45;96099.56;5089640;28;20691;-66
2021/06/30 06:35:42;;;;;;;0.90;0.80;;;;;;;16.17;92.39;96090.56;5073280;28;20490;-65
2021/06/30 06:38:09;;;;;;;3.00;0.77;;;;;;;16.24;92.12;96089.22;5073210;28;20429;-66
2021/06/30 06:40:34;;;;;;;1.33;0.70;;;;;;;16.30;93.07;96084.72;5055201;28;20778;-66
2021/06/30 06:42:59;;;;;;;0.70;0.70;;;;;;;16.36;92.77;96091.56;5072795;28;20408;-65
2021/06/30 06:45:25;;;;;;;0.60;0.60;;;;;;;16.20;92.85;96096.13;5073360;28;20540;-62
2021/06/30 06:47:50;;;;;;;1.43;0.80;;;;;;;16.09;93.14;96093.72;5074399;28;20178;-62
2021/06/30 06:50:16;;;;;;;0.70;0.70;;;;;;;15.94;94.35;96089.22;5093608;28;20201;-63
2021/06/30 06:52:41;;;;;;;0.93;0.93;;;;;;;16.13;94.26;96087.66;5092929;28;20227;-66
2021/06/30 06:55:10;;;;;;;1.43;0.60;;;;;;;16.31;92.81;96081.78;5096560;28;20239;-62
2021/06/30 06:57:35;;;;;;;0.90;0.90;;;;;;;16.61;90.34;96078.31;5097485;28;20177;-64
2021/06/30 07:00:01;;;;;;;0.97;0.87;;;;;;;16.69;90.19;96083.03;5097432;28;20735;-67
2021/06/30 07:02:28;;;;;;;0.70;0.70;;;;;;;16.68;90.25;96097.38;5096538;28;20536;-67
2021/06/30 07:04:53;;;;;;;2.13;0.70;;;;;;;16.57;87.27;96101.13;5081252;28;20190;-62
2021/06/30 07:07:19;;;;;;;0.60;0.60;;;;;;;16.60;87.18;96102.44;5097333;28;20411;-66
2021/06/30 07:09:44;;;;;;;0.97;0.73;;;;;;;16.75;87.36;96094.44;5078922;28;20218;-61
2021/06/30 07:12:10;;;;;;;1.37;0.83;;;;;;;17.02;85.98;96092.22;5091104;28;20640;-66
2021/06/30 07:14:35;;;;;;;0.80;0.70;;;;;;;17.05;87.17;96091.66;5075228;28;20279;-66
2021/06/30 07:17:01;;;;;;;0.40;0.40;;;;;;;17.20;86.26;96088.94;5092672;28;20189;-65
2021/06/30 07:19:26;;;;;;;0.50;0.50;;;;;;;17.43;85.60;96090.91;5087870;28;20257;-65
2021/06/30 07:21:51;;;;;;;1.23;0.50;;;;;;;17.56;83.91;96086.88;5096573;28;20170;-64
2021/06/30 07:24:17;;;;;;;0.60;0.40;;;;;;;17.71;82.59;96090.25;5096768;28;20620;-64
2021/06/30 07:26:42;;;;;;;2.33;0.60;;;;;;;17.57;80.50;96091.94;5096823;28;20182;-64
2021/06/30 07:29:09;;;;;;;1.00;0.50;;;;;;;17.59;80.44;96089.00;5096798;28;20766;-65
2021/06/30 07:31:36;;;;;;;0.83;0.47;;;;;;;17.42;81.37;96095.47;5096123;28;20205;-67
2021/06/30 07:34:03;;;;;;;0.40;0.40;;;;;;;17.66;81.84;96100.13;5081332;28;20950;-65
2021/06/30 07:36:28;;;;;;;1.83;0.40;;;;;;;17.53;80.73;96096.22;5096786;28;20407;-66
2021/06/30 07:38:53;;;;;;;0.60;0.40;;;;;;;17.58;80.57;96100.69;5096416;28;20439;-64
2021/06/30 07:41:19;;;;;;;0.60;0.60;;;;;;;17.55;79.68;96095.94;5096389;28;20633;-65
2021/06/30 07:43:44;;;;;;;0.57;0.57;;;;;;;17.72;80.45;96099.03;5095994;28;20202;-64
2021/06/30 07:46:10;;;;;;;0.50;0.50;;;;;;;17.46;78.83;96098.38;5096509;28;20170;-65
2021/06/30 07:48:35;;;;;;;0.57;0.40;;;;;;;17.42;79.16;96105.28;5096566;28;20201;-65
2021/06/30 07:51:00;;;;;;;0.60;0.57;;;;;;;17.64;80.08;96091.63;5095101;28;20200;-66
2021/06/30 07:53:26;;;;;;;0.70;0.47;;;;;;;17.72;80.51;96096.38;5096046;28;20198;-65
2021/06/30 07:55:52;;;;;;;0.40;0.40;;;;;;;17.49;81.06;96103.16;5093884;28;20255;-63
2021/06/30 07:58:19;;;;;;;0.77;0.50;;;;;;;17.57;79.99;96099.91;5092417;28;20178;-69
2021/06/30 08:00:44;;;;;;;0.50;0.50;;;;;;;17.72;80.95;96101.69;5079758;28;20423;-64
2021/06/30 08:03:10;;;;;;;0.63;0.40;;;;;;;17.65;81.11;96106.50;5089548;28;20439;-64
2021/06/30 08:05:35;;;;;;;0.60;0.40;;;;;;;17.43;82.72;96112.19;5085691;28;20185;-67
2021/06/30 08:08:01;;;;;;;0.43;0.43;;;;;;;17.11;83.69;96111.81;5090675;28;20548;-65
2021/06/30 08:10:26;;;;;;;0.40;0.40;;;;;;;17.08;85.11;96107.06;5087624;28;20194;-69
2021/06/30 08:12:52;;;;;;;0.47;0.47;;;;;;;16.98;85.45;96109.75;5086300;28;20211;-64
2021/06/30 08:15:17;;;;;;;1.77;0.77;;;;;;;17.17;85.46;96100.91;5089793;28;20202;-62
2021/06/30 08:17:46;;;;;;;0.57;0.50;;;;;;;17.34;84.55;96108.50;5088233;28;20274;-64
2021/06/30 08:20:13;;;;;;;0.43;0.43;;;;;;;16.98;85.68;96110.53;5086423;28;20186;-63
2021/06/30 08:22:38;;;;;;;0.60;0.40;;;;;;;16.97;86.77;96113.47;5089422;28;20526;-62
2021/06/30 08:25:04;;;;;;;0.57;0.57;;;;;;;17.01;85.05;96109.22;5093831;28;20842;-60
2021/06/30 08:27:29;;;;;;;0.50;0.50;;;;;;;17.09;84.85;96111.28;5089563;28;20653;-62
2021/06/30 08:29:56;;;;;;;4.50;0.70;;;;;;;17.19;84.36;96100.63;5084668;28;20866;-63
2021/06/30 08:32:24;;;;;;;0.60;0.60;;;;;;;17.29;81.26;96105.88;5083358;28;20298;-68
2021/06/30 08:34:50;;;;;;;1.17;0.60;;;;;;;17.33;82.38;96105.06;5082486;28;21256;-64
2021/06/30 08:37:18;;;;;;;0.50;0.50;;;;;;;17.55;81.00;96095.94;5089614;28;20959;-61
2021/06/30 08:39:43;;;;;;;0.50;0.40;;;;;;;17.58;82.14;96112.13;5091981;28;20239;-62
2021/06/30 08:42:09;;;;;;;0.40;0.40;;;;;;;17.66;79.87;96105.44;5084774;28;20439;-65
2021/06/30 08:44:35;;;;;;;0.63;0.60;;;;;;;17.87;79.72;96097.03;5085395;28;20210;-64
2021/06/30 08:47:01;;;;;;;0.60;0.60;;;;;;;17.99;79.75;96104.66;5082898;28;20186;-61
2021/06/30 08:49:27;;;;;;;0.70;0.60;;;;;;;17.95;78.75;96096.47;5083253;28;20523;-61
2021/06/30 08:51:57;;;;;;;2.23;0.60;;;;;;;17.41;81.33;96117.78;5081229;28;20536;-65
2021/06/30 08:54:23;;;;;;;1.53;0.50;;;;;;;17.47;82.00;96110.59;5081198;28;20231;-62
2021/06/30 08:56:50;;;;;;;0.60;0.57;;;;;;;17.15;81.27;96108.34;5083972;28;21414;-62
2021/06/30 08:59:16;;;;;;;0.60;0.40;;;;;;;17.15;81.42;96112.88;5085500;28;20833;-64
2021/06/30 09:01:43;;;;;;;0.67;0.67;;;;;;;17.34;80.63;96096.03;5082450;28;20428;-63
2021/06/30 09:04:11;;;;;;;0.87;0.40;;;;;;;17.18;79.66;96113.13;5085713;28;20208;-62
2021/06/30 09:06:36;;;;;;;0.50;0.50;;;;;;;17.19;79.97;96116.56;5081832;28;20432;-64
2021/06/30 09:09:13;;;;;;;0.70;0.60;;;;;;;17.23;80.43;96114.94;5082819;28;20439;-63
2021/06/30 09:11:40;;;;;;;0.57;0.57;;;;;;;17.07;79.37;96119.53;5081588;28;20205;-69
2021/06/30 09:14:24;;;;;;;0.47;0.47;;;;;;;17.39;81.30;96103.97;5082930;28;20444;-69
2021/06/30 09:17:22;;;;;;;0.70;0.50;;;;;;;17.71;79.32;96114.16;5081590;28;20420;-68
2021/06/30 09:20:02;;;;;;;0.40;0.40;;;;;;;17.48;78.71;96109.53;5080472;28;20427;-62
2021/06/30 09:22:39;;;;;;;0.60;0.60;;;;;;;17.79;79.63;96108.25;5082359;28;20430;-62
2021/06/30 09:25:05;;;;;;;0.63;0.63;;;;;;;17.86;79.09;96111.41;5082603;28;20443;-63
2021/06/30 09:27:57;;;;;;;0.60;0.60;;;;;;;17.93;74.26;96106.56;5083356;28;20436;-63
2021/06/30 09:30:22;;;;;;;0.60;0.47;;;;;;;17.90;76.33;96115.09;5076770;28;20480;-61
2021/06/30 09:33:03;;;;;;;0.50;0.50;;;;;;;17.86;74.52;96113.28;5081842;28;20454;-62
2021/06/30 09:35:34;;;;;;;2.10;0.40;;;;;;;18.08;75.05;96114.41;5081722;28;20597;-62
2021/06/30 09:38:30;;;;;;;0.40;0.40;;;;;;;18.23;76.14;96110.81;5081607;28;20432;-63
2021/06/30 09:40:56;;;;;;;0.40;0.40;;;;;;;17.87;76.17;96120.97;5082316;28;21413;-58
2021/06/30 09:43:26;;;;;;;0.40;0.40;;;;;;;17.88;76.32;96122.53;5081381;28;20452;-63
2021/06/30 09:45:52;;;;;;;0.40;0.40;;;;;;;17.59;76.82;96127.00;5084830;28;20829;-60
2021/06/30 09:48:28;;;;;;;1.20;0.47;;;;;;;17.44;78.58;96125.22;5081750;28;20424;-60
2021/06/30 09:50:54;;;;;;;0.60;0.60;;;;;;;17.26;79.85;96127.69;5082248;28;20202;-60
2021/06/30 09:53:36;;;;;;;0.40;0.40;;;;;;;17.60;78.00;96127.78;5081754;28;20482;-65
2021/06/30 09:56:32;;;;;;;1.00;0.40;;;;;;;17.85;77.14;96115.13;5082130;28;20257;-61
2021/06/30 09:59:01;;;;;;;1.00;0.43;;;;;;;18.04;76.11;96113.41;5081257;28;20509;-65
2021/06/30 10:01:27;;;;;;;0.60;0.47;;;;;;;18.27;76.50;96117.19;5081458;28;20420;-65
2021/06/30 10:03:53;;;;;;;0.57;0.40;;;;;;;18.31;76.25;96115.56;5083834;28;20448;-63
2021/06/30 10:06:35;;;;;;;0.93;0.43;;;;;;;18.08;74.64;96109.09;5083715;28;20216;-61
2021/06/30 10:09:04;;;;;;;1.03;0.50;;;;;;;17.85;73.62;96112.47;5086010;28;20313;-65
2021/06/30 10:11:30;;;;;;;0.47;0.40;;;;;;;17.90;76.33;96106.34;5086464;28;20447;-59
2021/06/30 10:13:57;;;;;;;0.40;0.40;;;;;;;18.27;75.30;96095.91;5066372;28;20452;-60
2021/06/30 10:16:23;;;;;;;0.40;0.40;;;;;;;18.82;74.46;96099.91;5088427;28;20527;-61
2021/06/30 10:18:55;;;;;;;0.60;0.50;;;;;;;18.83;73.84;96104.94;5085356;28;20807;-60
2021/06/30 10:21:23;;;;;;;0.60;0.60;;;;;;;18.78;70.02;96114.84;5080698;28;20459;-59
2021/06/30 10:23:50;;;;;;;0.30;0.30;;;;;;;18.67;71.77;96100.06;5084287;28;20443;-62
2021/06/30 10:26:17;;;;;;;0.60;0.60;;;;;;;18.63;70.09;96099.81;5081243;28;20432;-60
2021/06/30 10:28:44;;;;;;;0.57;0.57;;;;;;;18.52;71.93;96109.00;5085659;28;20439;-59
2021/06/30 10:31:10;;;;;;;1.47;0.60;;;;;;;18.76;71.24;96109.00;5089273;28;20614;-60
2021/06/30 10:33:40;;;;;;;1.37;0.50;;;;;;;19.21;71.19;96111.13;5086093;28;20538;-58
2021/06/30 10:36:08;;;;;;;1.27;0.70;;;;;;;19.43;70.86;96098.88;5080856;28;20489;-59
2021/06/30 10:38:54;;;;;;;6.80;1.53;;;;;;;19.92;70.21;96094.97;5081118;28;21039;-60
2021/06/30 10:41:39;;;;;;;0.90;0.53;;;;;;;19.75;66.98;96092.03;5080211;28;22252;-60
2021/06/30 10:44:25;;;;;;;0.60;0.60;;;;;;;19.67;67.46;96096.16;5081774;28;20502;-59
2021/06/30 10:46:53;;;;;;;0.50;0.50;;;;;;;19.49;67.32;96099.59;5064090;28;20999;-59
2021/06/30 10:49:21;;;;;;;0.50;0.50;;;;;;;19.23;69.14;96096.47;5083279;28;20440;-60
2021/06/30 10:51:50;;;;;;;0.50;0.50;;;;;;;19.35;72.81;96099.50;5082089;28;20456;-59
2021/06/30 10:54:37;;;;;;;0.50;0.50;;;;;;;19.52;70.46;96096.34;5080764;28;20572;-60
2021/06/30 10:57:35;;;;;;;0.70;0.70;;;;;;;19.44;69.01;96097.78;5080849;28;20786;-59
2021/06/30 11:00:06;;;;;;;0.60;0.57;;;;;;;19.27;69.56;96094.81;5024741;28;20450;-58
2021/06/30 11:02:34;;;;;;;1.50;0.57;;;;;;;19.59;71.14;96094.13;5084147;28;20428;-59
2021/06/30 11:05:12;;;;;;;0.50;0.50;;;;;;;19.70;68.70;96095.56;5082043;28;20448;-58
2021/06/30 11:07:37;;;;;;;0.60;0.60;;;;;;;19.77;70.34;96106.66;5081024;28;20432;-59
2021/06/30 11:10:20;;;;;;;1.00;0.60;;;;;;;19.02;66.29;96103.09;5083667;28;20436;-58
2021/06/30 11:12:59;;;;;;;0.60;0.53;;;;;;;19.13;64.97;96096.56;5080347;28;20268;-59
2021/06/30 11:15:37;;;;;;;1.37;0.50;;;;;;;18.81;66.49;96096.44;5080032;28;20443;-59
2021/06/30 11:18:04;;;;;;;0.60;0.60;;;;;;;19.23;67.61;96093.00;5060740;28;20866;-59
2021/06/30 11:20:51;;;;;;;0.63;0.60;;;;;;;19.68;68.53;96084.38;5080376;28;20504;-60
2021/06/30 11:23:25;;;;;;;0.80;0.70;;;;;;;20.24;64.81;96079.78;5079448;28;20489;-59
2021/06/30 11:25:55;;;;;;;0.80;0.67;;;;;;;19.96;63.12;96075.44;5080405;28;20439;-58
2021/06/30 11:28:31;;;;;;;1.70;0.63;;;;;;;19.73;63.65;96070.97;5063703;28;20938;-59
2021/06/30 11:30:57;;;;;;;1.00;0.40;;;;;;;19.40;65.38;96077.34;5079827;28;20559;-60
2021/06/30 11:33:23;;;;;;;1.07;0.50;;;;;;;18.97;67.50;96079.19;5080354;28;20466;-59